createdAt,value
2018-09-21T00:00:15.542Z,100484.37
2018-09-21T00:02:44.980Z,100479.43
2018-09-21T00:05:14.453Z,100471.46
2018-09-21T00:07:43.949Z,100473.20
2018-09-21T00:10:13.435Z,100474.94
2018-09-21T00:12:42.874Z,100473.20
2018-09-21T00:15:12.290Z,100471.39
2018-09-21T00:17:41.754Z,100470.03
2018-09-21T00:20:11.215Z,100468.26
2018-09-21T00:22:40.681Z,100466.03
2018-09-21T00:25:10.239Z,100467.81
2018-09-21T00:27:39.689Z,100462.94
2018-09-21T00:30:09.193Z,100455.00
2018-09-21T00:32:38.709Z,100448.04
2018-09-21T00:35:08.198Z,100445.92
2018-09-21T00:37:37.638Z,100449.98
2018-09-21T00:40:07.182Z,100445.71
2018-09-21T00:42:36.625Z,100440.04
2018-09-21T00:45:06.329Z,100441.40
2018-09-21T00:47:35.844Z,100441.47
2018-09-21T00:50:05.393Z,100433.64
2018-09-21T00:52:34.897Z,100431.06
2018-09-21T00:55:04.512Z,100426.26
2018-09-21T00:57:33.957Z,100425.00
2018-09-21T01:00:03.565Z,100426.81
2018-09-21T01:02:33.235Z,100422.84
2018-09-21T01:05:02.754Z,100421.08
2018-09-21T01:07:32.213Z,100418.05
2018-09-21T01:10:01.722Z,100417.11
2018-09-21T01:12:31.165Z,100423.27
2018-09-21T01:15:00.613Z,100417.63
2018-09-21T01:17:30.110Z,100421.21
2018-09-21T01:19:59.760Z,100415.57
2018-09-21T01:22:29.232Z,100410.32
2018-09-21T01:24:58.755Z,100408.55
2018-09-21T01:27:28.243Z,100407.23
2018-09-21T01:29:57.724Z,100405.38
2018-09-21T01:32:27.272Z,100399.16
2018-09-21T01:34:56.740Z,100406.98
2018-09-21T01:37:26.220Z,100397.67
2018-09-21T01:39:55.937Z,100393.63
2018-09-21T01:42:25.417Z,100394.50
2018-09-21T01:44:55.049Z,100392.24
2018-09-21T01:47:24.733Z,100387.38
2018-09-21T01:49:54.247Z,100387.41
2018-09-21T01:52:23.830Z,100389.18
2018-09-21T01:54:53.498Z,100375.55
2018-09-21T01:57:23.089Z,100379.93
2018-09-21T01:59:52.652Z,100378.61
2018-09-21T02:02:22.286Z,100379.02
2018-09-21T02:04:51.932Z,100375.47
2018-09-21T02:07:21.500Z,100384.73
2018-09-21T02:09:51.706Z,100376.45
2018-09-21T02:12:21.371Z,100367.20
2018-09-21T02:14:50.977Z,100369.77
2018-09-21T02:17:20.877Z,100364.97
2018-09-21T02:19:50.502Z,100364.97
2018-09-21T02:22:20.105Z,100364.52
2018-09-21T02:24:49.807Z,100357.95
2018-09-21T02:27:19.385Z,100350.50
2018-09-21T02:29:48.998Z,100360.70
2018-09-21T02:32:18.586Z,100353.78
2018-09-21T02:34:48.152Z,100352.56
2018-09-21T02:37:17.754Z,100354.82
2018-09-21T02:39:47.569Z,100345.98
2018-09-21T02:42:17.209Z,100355.69
2018-09-21T02:44:46.887Z,100352.21
2018-09-21T02:47:16.517Z,100351.38
2018-09-21T02:49:46.108Z,100343.55
2018-09-21T02:52:15.728Z,100340.08
2018-09-21T02:54:45.369Z,100333.47
2018-09-21T02:57:14.960Z,100328.19
2018-09-21T02:59:44.611Z,100329.55
2018-09-21T03:02:14.197Z,100326.94
2018-09-21T03:04:48.948Z,100321.72
2018-09-21T03:07:18.573Z,100320.40
2018-09-21T03:09:48.113Z,100319.53
2018-09-21T03:12:17.699Z,100313.79
2018-09-21T03:14:47.310Z,100308.09
2018-09-21T03:17:16.890Z,100315.60
2018-09-21T03:19:46.464Z,100309.94
2018-09-21T03:22:16.219Z,100308.58
2018-09-21T03:24:45.797Z,100299.27
2018-09-21T03:27:15.403Z,100300.96
2018-09-21T03:29:44.983Z,100295.67
2018-09-21T03:32:14.548Z,100301.37
2018-09-21T03:34:44.155Z,100292.09
2018-09-21T03:37:13.815Z,100294.25
2018-09-21T03:39:43.374Z,100288.52
2018-09-21T03:42:12.969Z,100281.94
2018-09-21T03:44:42.772Z,100283.64
2018-09-21T03:47:12.328Z,100275.30
2018-09-21T03:49:42.009Z,100273.11
2018-09-21T03:52:11.627Z,100266.92
2018-09-21T03:54:41.180Z,100272.13
2018-09-21T03:57:10.822Z,100264.70
2018-09-21T03:59:40.398Z,100262.12
2018-09-21T04:02:10.021Z,100257.30
2018-09-21T04:04:42.904Z,100255.06
2018-09-21T04:07:12.732Z,100256.80
2018-09-21T04:09:42.297Z,100258.92
2018-09-21T04:12:11.854Z,100256.17
2018-09-21T04:14:41.401Z,100259.64
2018-09-21T04:17:10.964Z,100255.60
2018-09-21T04:19:40.636Z,100254.70
2018-09-21T04:22:10.177Z,100243.22
2018-09-21T04:24:39.748Z,100249.83
2018-09-21T04:27:09.337Z,100236.57
2018-09-21T04:29:38.945Z,100236.02
2018-09-21T04:32:08.506Z,100233.74
2018-09-21T04:34:38.074Z,100235.02
2018-09-21T04:37:07.707Z,100230.16
2018-09-21T04:39:37.409Z,100217.69
2018-09-21T04:42:07.005Z,100209.27
2018-09-21T04:44:36.675Z,100208.31
2018-09-21T04:47:06.299Z,100211.38
2018-09-21T04:49:36.011Z,100207.81
2018-09-21T04:52:05.741Z,100209.09
2018-09-21T04:54:35.309Z,100206.87
2018-09-21T04:57:04.916Z,100208.16
2018-09-21T04:59:34.560Z,100208.56
2018-09-21T05:02:04.152Z,100202.83
2018-09-21T05:04:33.697Z,100198.77
2018-09-21T05:07:03.278Z,100199.03
2018-09-21T05:09:32.837Z,100193.12
2018-09-21T05:12:02.506Z,100197.71
2018-09-21T05:14:32.198Z,100192.75
2018-09-21T05:17:01.764Z,100193.82
2018-09-21T05:19:31.616Z,100189.50
2018-09-21T05:22:01.237Z,100195.34
2018-09-21T05:24:30.773Z,100181.18
2018-09-21T05:27:00.359Z,100182.00
2018-09-21T05:29:29.945Z,100177.11
2018-09-21T05:31:59.527Z,100181.04
2018-09-21T05:34:29.305Z,100177.59
2018-09-21T05:37:05.697Z,100177.30
2018-09-21T05:39:35.385Z,100179.11
2018-09-21T05:42:05.070Z,100180.34
2018-09-21T05:44:34.651Z,100174.80
2018-09-21T05:47:04.511Z,100171.33
2018-09-21T05:49:34.120Z,100168.62
2018-09-21T05:52:03.728Z,100165.34
2018-09-21T05:54:33.338Z,100170.33
2018-09-21T05:57:02.896Z,100168.70
2018-09-21T05:59:32.493Z,100166.97
2018-09-21T06:02:02.365Z,100159.07
2018-09-21T06:04:31.916Z,100159.72
2018-09-21T06:07:01.741Z,100149.66
2018-09-21T06:09:31.507Z,100150.48
2018-09-21T06:12:01.254Z,100155.44
2018-09-21T06:14:30.901Z,100150.97
2018-09-21T06:17:00.532Z,100144.83
2018-09-21T06:19:30.208Z,100143.99
2018-09-21T06:21:59.789Z,100147.69
2018-09-21T06:24:29.585Z,100140.03
2018-09-21T06:26:59.177Z,100134.05
2018-09-21T06:29:28.763Z,100131.53
2018-09-21T06:31:58.376Z,100129.16
2018-09-21T06:34:28.016Z,100134.38
2018-09-21T06:36:57.625Z,100123.91
2018-09-21T06:39:27.372Z,100127.71
2018-09-21T06:41:56.984Z,100121.53
2018-09-21T06:44:26.627Z,100121.45
2018-09-21T06:46:56.371Z,100111.56
2018-09-21T06:49:26.065Z,100116.27
2018-09-21T06:51:55.748Z,100110.77
2018-09-21T06:54:25.424Z,100113.19
2018-09-21T06:56:55.045Z,100111.84
2018-09-21T06:59:24.669Z,100110.00
2018-09-21T07:01:54.534Z,100111.34
2018-09-21T07:04:24.192Z,100107.44
2018-09-21T07:06:53.803Z,100096.41
2018-09-21T07:09:23.409Z,100099.52
2018-09-21T07:11:53.077Z,100093.59
2018-09-21T07:14:22.663Z,100082.30
2018-09-21T07:16:52.332Z,100085.34
2018-09-21T07:19:22.029Z,100080.44
2018-09-21T07:21:51.641Z,100070.64
2018-09-21T07:24:21.280Z,100068.86
2018-09-21T07:26:50.913Z,100069.91
2018-09-21T07:29:20.560Z,100062.67
2018-09-21T07:31:50.151Z,100058.33
2018-09-21T07:34:19.752Z,100055.92
2018-09-21T07:36:49.993Z,100047.91
2018-09-21T07:39:19.548Z,100042.81
2018-09-21T07:41:49.117Z,100024.67
2018-09-21T07:44:18.734Z,100019.13
2018-09-21T07:46:48.542Z,100029.99
2018-09-21T07:49:18.155Z,100050.27
2018-09-21T07:51:47.748Z,100045.80
2018-09-21T07:54:17.372Z,100049.94
2018-09-21T07:56:47.008Z,100048.06
2018-09-21T07:59:16.596Z,100040.67
2018-09-21T08:01:46.229Z,100038.91
2018-09-21T08:04:15.782Z,100033.70
2018-09-21T08:06:45.429Z,100026.97
2018-09-21T08:09:15.247Z,100023.95
2018-09-21T08:11:44.890Z,100018.69
2018-09-21T08:14:14.545Z,100016.91
2018-09-21T08:16:44.245Z,100009.00
2018-09-21T08:19:13.826Z,100009.05
2018-09-21T08:21:43.460Z,100007.86
2018-09-21T08:24:13.144Z,99998.03
2018-09-21T08:26:42.902Z,99994.55
2018-09-21T08:29:12.489Z,99987.83
2018-09-21T08:31:42.214Z,99988.63
2018-09-21T08:34:11.897Z,99985.01
2018-09-21T08:36:41.498Z,99987.53
2018-09-21T08:39:12.236Z,99985.98
2018-09-21T08:41:42.229Z,99990.43
2018-09-21T08:44:11.842Z,99983.62
2018-09-21T08:46:41.511Z,99983.44
2018-09-21T08:49:11.200Z,99991.59
2018-09-21T08:51:40.885Z,99989.54
2018-09-21T08:54:10.617Z,99983.48
2018-09-21T08:56:40.217Z,99972.31
2018-09-21T08:59:09.899Z,99970.67
2018-09-21T09:01:39.589Z,99970.45
2018-09-21T09:04:09.786Z,99972.84
2018-09-21T09:06:39.415Z,99957.89
2018-09-21T09:09:10.876Z,99950.41
2018-09-21T09:11:40.753Z,99938.16
2018-09-21T09:14:10.727Z,99942.23
2018-09-21T09:16:40.771Z,99941.20
2018-09-21T09:19:10.431Z,99932.36
2018-09-21T09:21:40.249Z,99933.56
2018-09-21T09:24:09.897Z,99940.00
2018-09-21T09:26:39.512Z,99927.19
2018-09-21T09:29:09.522Z,99932.92
2018-09-21T09:31:39.585Z,99924.24
2018-09-21T09:34:09.568Z,99931.17
2018-09-21T09:36:39.315Z,99908.16
2018-09-21T09:39:12.421Z,99899.06
2018-09-21T09:41:42.080Z,99903.40
2018-09-21T09:44:11.983Z,99898.23
2018-09-21T09:46:41.721Z,99891.98
2018-09-21T09:49:11.341Z,99884.29
2018-09-21T09:51:41.058Z,99883.08
2018-09-21T09:54:10.710Z,99875.34
2018-09-21T09:56:40.449Z,99873.45
2018-09-21T09:59:10.043Z,99868.02
2018-09-21T10:01:39.672Z,99857.16
2018-09-21T10:04:09.295Z,99852.30
2018-09-21T10:06:38.889Z,99850.25
2018-09-21T10:09:10.998Z,99846.05
2018-09-21T10:11:41.197Z,99836.02
2018-09-21T10:14:11.033Z,99835.91
2018-09-21T10:16:40.855Z,99828.48
2018-09-21T10:19:10.464Z,99821.30
2018-09-21T10:21:40.223Z,99815.11
2018-09-21T10:24:09.993Z,99810.30
2018-09-21T10:26:39.586Z,99811.26
2018-09-21T10:29:09.355Z,99802.08
2018-09-21T10:31:39.003Z,99797.50
2018-09-21T10:34:08.629Z,99789.54
2018-09-21T10:36:38.256Z,99791.92
2018-09-21T10:39:08.543Z,99796.75
2018-09-21T10:41:38.354Z,99788.41
2018-09-21T10:44:08.329Z,99787.98
2018-09-21T10:46:38.181Z,99781.50
2018-09-21T10:49:07.834Z,99774.42
2018-09-21T10:51:37.521Z,99776.41
2018-09-21T10:54:07.267Z,99769.39
2018-09-21T10:56:36.836Z,99765.83
2018-09-21T10:59:06.502Z,99753.27
2018-09-21T11:01:36.125Z,99755.16
2018-09-21T11:04:05.951Z,99761.62
2018-09-21T11:06:35.535Z,99761.65
2018-09-21T11:09:08.625Z,99748.70
2018-09-21T11:11:38.333Z,99739.20
2018-09-21T11:14:07.956Z,99730.91
2018-09-21T11:16:37.702Z,99728.45
2018-09-21T11:19:07.337Z,99715.74
2018-09-21T11:21:37.029Z,99725.69
2018-09-21T11:24:06.692Z,99711.83
2018-09-21T11:26:36.261Z,99696.98
2018-09-21T11:29:06.086Z,99692.35
2018-09-21T11:31:35.665Z,99679.98
2018-09-21T11:34:05.231Z,99687.75
2018-09-21T11:36:34.829Z,99692.51
2018-09-21T11:39:09.162Z,99691.79
2018-09-21T11:41:38.789Z,99674.17
2018-09-21T11:44:08.653Z,99683.34
2018-09-21T11:46:38.318Z,99667.12
2018-09-21T11:49:08.013Z,99660.53
2018-09-21T11:51:37.574Z,99660.51
2018-09-21T11:54:07.289Z,99669.19
2018-09-21T11:56:36.817Z,99669.98
2018-09-21T11:59:06.417Z,99678.20
2018-09-21T12:01:36.066Z,99662.98
2018-09-21T12:04:05.634Z,99659.88
2018-09-21T12:06:35.153Z,99650.30
2018-09-21T12:09:05.356Z,99648.88
2018-09-21T12:11:35.258Z,99655.41
2018-09-21T12:14:05.027Z,99649.16
2018-09-21T12:16:34.651Z,99639.54
2018-09-21T12:19:04.277Z,99634.84
2018-09-21T12:21:33.972Z,99634.97
2018-09-21T12:24:03.580Z,99623.46
2018-09-21T12:26:33.144Z,99640.48
2018-09-21T12:29:02.731Z,99644.04
2018-09-21T12:31:32.315Z,99642.22
2018-09-21T12:34:01.873Z,99633.30
2018-09-21T12:36:31.692Z,99625.14
2018-09-21T12:39:01.230Z,99625.87
2018-09-21T12:41:30.834Z,99618.00
2018-09-21T12:44:00.400Z,99616.20
2018-09-21T12:46:30.416Z,99610.80
2018-09-21T12:49:03.653Z,99621.23
2018-09-21T12:51:34.516Z,99605.14
2018-09-21T12:54:04.155Z,99597.13
2018-09-21T12:56:33.752Z,99602.03
2018-09-21T12:59:03.417Z,99592.37
2018-09-21T13:01:32.969Z,99617.88
2018-09-21T13:04:02.651Z,99613.78
2018-09-21T13:06:32.297Z,99605.50
2018-09-21T13:09:01.866Z,99612.44
2018-09-21T13:11:31.484Z,99609.73
2018-09-21T13:14:01.091Z,99604.11
2018-09-21T13:16:30.750Z,99623.55
2018-09-21T13:19:00.489Z,99608.31
2018-09-21T13:21:30.110Z,99598.48
2018-09-21T13:23:59.719Z,99583.98
2018-09-21T13:26:29.326Z,99584.37
2018-09-21T13:28:59.182Z,99569.25
2018-09-21T13:31:28.765Z,99576.98
2018-09-21T13:33:58.391Z,99577.36
2018-09-21T13:36:28.238Z,99579.61
2018-09-21T13:38:57.820Z,99547.27
2018-09-21T13:41:27.473Z,99583.34
2018-09-21T13:43:57.094Z,99571.12
2018-09-21T13:46:26.653Z,99570.88
2018-09-21T13:48:56.398Z,99571.99
2018-09-21T13:51:25.988Z,99565.52
2018-09-21T13:53:55.577Z,99570.77
2018-09-21T13:56:25.278Z,99565.05
2018-09-21T13:58:55.404Z,99561.72
2018-09-21T14:01:24.966Z,99562.68
2018-09-21T14:03:54.574Z,99552.53
2018-09-21T14:06:24.149Z,99565.48
2018-09-21T14:08:53.765Z,99559.73
2018-09-21T14:11:23.350Z,99548.27
2018-09-21T14:13:52.905Z,99541.19
2018-09-21T14:16:22.462Z,99543.48
2018-09-21T14:18:52.049Z,99555.94
2018-09-21T14:21:21.649Z,99564.93
2018-09-21T14:23:51.245Z,99560.17
2018-09-21T14:26:20.871Z,99569.16
2018-09-21T14:28:50.470Z,99558.92
2018-09-21T14:31:20.012Z,99559.34
2018-09-21T14:33:49.721Z,99556.26
2018-09-21T14:36:19.482Z,99555.77
2018-09-21T14:38:49.021Z,99565.87
2018-09-21T14:41:18.723Z,99614.83
2018-09-21T14:43:48.952Z,99734.44
2018-09-21T14:46:18.513Z,99728.52
2018-09-21T14:48:48.138Z,99740.77
2018-09-21T14:51:17.728Z,99767.23
2018-09-21T14:53:47.314Z,99777.49
2018-09-21T14:56:17.024Z,99771.50
2018-09-21T14:58:46.713Z,99796.74
2018-09-21T15:01:16.300Z,99820.70
2018-09-21T15:03:45.879Z,99843.86
2018-09-21T15:06:15.476Z,99872.16
2018-09-21T15:08:45.114Z,99901.53
2018-09-21T15:11:15.165Z,99927.61
2018-09-21T15:13:44.808Z,99930.41
2018-09-21T15:16:14.480Z,99935.95
2018-09-21T15:18:44.101Z,99960.62
2018-09-21T15:21:13.749Z,99967.34
2018-09-21T15:23:43.299Z,99971.73
2018-09-21T15:26:12.900Z,99976.61
2018-09-21T15:28:42.490Z,99952.21
2018-09-21T15:31:12.057Z,99942.97
2018-09-21T15:33:41.689Z,99970.58
2018-09-21T15:36:11.315Z,99967.27
2018-09-21T15:38:40.944Z,99988.63
2018-09-21T15:41:10.583Z,99980.42
2018-09-21T15:43:40.287Z,99976.45
2018-09-21T15:46:09.812Z,99985.84
2018-09-21T15:48:39.466Z,99998.72
2018-09-21T15:51:09.546Z,99994.39
2018-09-21T15:53:39.172Z,99984.02
2018-09-21T15:56:08.857Z,99996.86
2018-09-21T15:58:38.507Z,99985.58
2018-09-21T16:01:08.127Z,100004.42
2018-09-21T16:03:37.741Z,99991.61
2018-09-21T16:06:07.505Z,99977.38
2018-09-21T16:08:37.052Z,99976.36
2018-09-21T16:11:06.644Z,99984.55
2018-09-21T16:13:36.213Z,99989.67
2018-09-21T16:16:05.781Z,99979.80
2018-09-21T16:18:35.488Z,99988.89
2018-09-21T16:21:05.447Z,99998.03
2018-09-21T16:23:35.285Z,100018.95
2018-09-21T16:26:04.841Z,100029.27
2018-09-21T16:28:34.413Z,100018.52
2018-09-21T16:31:04.145Z,100015.22
2018-09-21T16:33:33.745Z,100017.52
2018-09-21T16:36:03.408Z,100029.00
2018-09-21T16:38:32.885Z,100031.73
2018-09-21T16:41:02.555Z,100024.83
2018-09-21T16:43:32.102Z,100020.50
2018-09-21T16:46:01.879Z,100012.23
2018-09-21T16:48:31.499Z,100021.91
2018-09-21T16:51:01.566Z,100024.11
2018-09-21T16:53:31.109Z,100029.77
2018-09-21T16:56:00.705Z,100041.13
2018-09-21T16:58:30.444Z,100004.80
2018-09-21T17:00:59.986Z,99996.88
2018-09-21T17:03:29.631Z,100002.50
2018-09-21T17:05:59.353Z,100009.95
2018-09-21T17:08:28.901Z,100025.31
2018-09-21T17:10:58.476Z,100017.45
2018-09-21T17:13:28.178Z,99997.73
2018-09-21T17:15:57.709Z,100007.36
2018-09-21T17:18:27.277Z,100022.69
2018-09-21T17:20:56.906Z,100026.16
2018-09-21T17:23:26.532Z,100027.45
2018-09-21T17:25:56.109Z,100042.38
2018-09-21T17:28:25.830Z,100053.73
2018-09-21T17:30:55.420Z,100060.75
2018-09-21T17:33:24.994Z,100081.23
2018-09-21T17:35:54.553Z,100084.29
2018-09-21T17:38:24.077Z,100084.73
2018-09-21T17:40:53.714Z,100087.81
2018-09-21T17:43:23.274Z,100111.52
2018-09-21T17:45:52.802Z,100120.34
2018-09-21T17:48:22.574Z,100122.98
2018-09-21T17:50:52.124Z,100134.81
2018-09-21T17:53:21.706Z,100146.66
2018-09-21T17:55:51.331Z,100166.37
2018-09-21T17:58:20.904Z,100177.79
2018-09-21T18:00:50.612Z,100178.27
2018-09-21T18:03:20.157Z,100173.08
2018-09-21T18:05:49.716Z,100177.55
2018-09-21T18:08:19.577Z,100182.47
2018-09-21T18:10:49.120Z,100161.92
2018-09-21T18:13:18.717Z,100167.20
2018-09-21T18:15:48.501Z,100146.20
2018-09-21T18:18:18.233Z,100131.34
2018-09-21T18:20:47.809Z,100107.69
2018-09-21T18:23:17.380Z,100087.09
2018-09-21T18:25:47.078Z,100107.20
2018-09-21T18:28:16.613Z,100131.30
2018-09-21T18:30:46.161Z,100143.53
2018-09-21T18:33:15.940Z,100150.02
2018-09-21T18:35:45.476Z,100161.38
2018-09-21T18:38:15.036Z,100166.20
2018-09-21T18:40:44.745Z,100172.83
2018-09-21T18:43:14.330Z,100198.67
2018-09-21T18:45:44.316Z,100195.61
2018-09-21T18:48:13.889Z,100208.33
2018-09-21T18:50:43.584Z,100213.19
2018-09-21T18:53:13.138Z,100229.41
2018-09-21T18:55:42.890Z,100240.35
2018-09-21T18:58:12.510Z,100247.36
2018-09-21T19:00:42.123Z,100258.76
2018-09-21T19:03:12.145Z,100263.14
2018-09-21T19:05:41.732Z,100251.33
2018-09-21T19:08:11.337Z,100258.77
2018-09-21T19:10:40.900Z,100244.75
2018-09-21T19:13:10.472Z,100252.20
2018-09-21T19:15:40.031Z,100262.77
2018-09-21T19:18:09.593Z,100282.08
2018-09-21T19:20:39.185Z,100285.16
2018-09-21T19:23:08.769Z,100293.47
2018-09-21T19:25:38.412Z,100301.80
2018-09-21T19:28:08.008Z,100302.67
2018-09-21T19:30:37.540Z,100304.88
2018-09-21T19:33:07.187Z,100311.91
2018-09-21T19:35:36.846Z,100312.38
2018-09-21T19:38:06.996Z,100309.77
2018-09-21T19:40:36.603Z,100307.59
2018-09-21T19:43:06.515Z,100329.05
2018-09-21T19:45:36.098Z,100340.88
2018-09-21T19:48:06.005Z,100337.81
2018-09-21T19:50:35.616Z,100335.19
2018-09-21T19:53:05.243Z,100347.01
2018-09-21T19:55:34.806Z,100348.75
2018-09-21T19:58:04.393Z,100368.44
2018-09-21T20:00:34.061Z,100358.38
2018-09-21T20:03:03.676Z,100362.31
2018-09-21T20:05:33.306Z,100368.87
2018-09-21T20:08:03.012Z,100369.30
2018-09-21T20:10:32.588Z,100370.20
2018-09-21T20:13:02.170Z,100377.66
2018-09-21T20:15:31.752Z,100378.14
2018-09-21T20:18:01.352Z,100394.80
2018-09-21T20:20:30.920Z,100398.33
2018-09-21T20:23:00.490Z,100406.25
2018-09-21T20:25:30.133Z,100411.97
2018-09-21T20:27:59.737Z,100416.41
2018-09-21T20:30:34.335Z,100423.44
2018-09-21T20:33:08.991Z,100423.06
2018-09-21T20:35:38.644Z,100437.94
2018-09-21T20:38:08.274Z,100433.19
2018-09-21T20:40:37.822Z,100439.76
2018-09-21T20:43:07.408Z,100445.45
2018-09-21T20:45:36.980Z,100450.73
2018-09-21T20:48:06.578Z,100450.73
2018-09-21T20:50:36.216Z,100459.92
2018-09-21T20:53:05.779Z,100460.36
2018-09-21T20:55:35.428Z,100452.09
2018-09-21T20:58:05.380Z,100459.53
2018-09-21T21:00:34.992Z,100456.06
2018-09-21T21:03:04.720Z,100462.19
2018-09-21T21:05:34.405Z,100472.64
2018-09-21T21:08:04.001Z,100470.02
2018-09-21T21:10:33.595Z,100468.30
2018-09-21T21:13:03.150Z,100471.78
2018-09-21T21:15:32.733Z,100474.86
2018-09-21T21:18:02.300Z,100473.55
2018-09-21T21:20:31.845Z,100470.48
2018-09-21T21:23:01.444Z,100470.95
2018-09-21T21:25:31.053Z,100482.73
2018-09-21T21:28:00.664Z,100478.36
2018-09-21T21:30:30.340Z,100481.84
2018-09-21T21:32:59.957Z,100487.52
2018-09-21T21:35:29.556Z,100487.08
2018-09-21T21:37:59.205Z,100500.61
2018-09-21T21:40:28.829Z,100511.97
2018-09-21T21:42:58.394Z,100510.68
2018-09-21T21:45:27.999Z,100517.66
2018-09-21T21:47:57.537Z,100515.48
2018-09-21T21:50:27.076Z,100523.33
2018-09-21T21:52:56.871Z,100526.38
2018-09-21T21:55:26.577Z,100528.14
2018-09-21T21:57:56.156Z,100527.25
2018-09-21T22:00:29.816Z,100537.71
2018-09-21T22:02:59.402Z,100530.28
2018-09-21T22:05:28.962Z,100527.23
2018-09-21T22:07:58.581Z,100525.48
2018-09-21T22:10:28.288Z,100528.09
2018-09-21T22:13:03.088Z,100529.40
2018-09-21T22:15:32.691Z,100530.70
2018-09-21T22:18:02.340Z,100533.33
2018-09-21T22:20:32.035Z,100537.67
2018-09-21T22:23:01.618Z,100538.94
2018-09-21T22:25:31.172Z,100545.05
2018-09-21T22:28:00.859Z,100551.12
2018-09-21T22:30:30.470Z,100554.59
2018-09-21T22:33:00.096Z,100544.54
2018-09-21T22:35:30.105Z,100552.39
2018-09-21T22:37:59.824Z,100551.92
2018-09-21T22:40:29.582Z,100551.02
2018-09-21T22:42:59.332Z,100552.34
2018-09-21T22:45:28.953Z,100554.06
2018-09-21T22:47:58.557Z,100557.52
2018-09-21T22:50:28.198Z,100550.48
2018-09-21T22:52:57.885Z,100562.70
2018-09-21T22:55:27.572Z,100571.38
2018-09-21T22:57:57.146Z,100571.77
2018-09-21T23:00:26.849Z,100571.75
2018-09-21T23:02:56.502Z,100576.94
2018-09-21T23:05:26.216Z,100577.78
2018-09-21T23:07:55.936Z,100579.08
2018-09-21T23:10:25.527Z,100583.40
2018-09-21T23:12:55.360Z,100583.80
2018-09-21T23:15:24.978Z,100585.52
2018-09-21T23:17:54.523Z,100596.81
2018-09-21T23:20:24.131Z,100596.81
2018-09-21T23:22:53.692Z,100600.75
2018-09-21T23:25:23.255Z,100606.84
2018-09-21T23:27:52.882Z,100595.62
2018-09-21T23:30:22.564Z,100607.50
2018-09-21T23:32:52.229Z,100611.47
2018-09-21T23:35:22.136Z,100604.09
2018-09-21T23:37:51.790Z,100597.98
2018-09-21T23:40:21.354Z,100598.00
2018-09-21T23:42:50.976Z,100596.23
2018-09-21T23:45:20.535Z,100594.48
2018-09-21T23:47:50.160Z,100599.27
2018-09-21T23:50:20.136Z,100595.33
2018-09-21T23:52:49.712Z,100601.86
2018-09-21T23:55:19.277Z,100604.87
2018-09-21T23:57:49.116Z,100595.28
